Alexandria, AL

7:33 PM CST on November 22, 2014 (GMT -0600)
Weaver, AL | Change Station
CLOSE
Current Station
Personal Weather Station
Location: Weaver, AL
Elevation: 760 ft
Nearby Weather Stations

Elev 760 ft 33.75 °N, 85.84 °W | Updated 4 seconds ago

Overcast
Overcast
66.7 °F
Feels Like 66.7 °F
N
14.1
Wind Variable Wind from ESE
Gusts 17.6 mph

Today
High -- | Low -- °F
--% Chance of Precip.
Yesterday
High -- | Low -- °F
Precip. -- in
6:22 AM 4:37 PM
New Moon, 0% visible
Pressure 30.21 in
Visibility 10.0 miles
Clouds Overcast 5500 ft
Dew Point 42 °F
Humidity 40%
Rainfall 0.00 in
Snow Depth Not available.
UV 0 out of 12
Pollen 1.30 out of 12
Air Quality Not available.
Flu Activity Not available.
METAR KANB 230053Z AUTO 08010KT 10SM OVC055 16/04 A3020 RMK AO2 SLP228 T01610044 $

More Conditions Fewer Conditions

Pressure 30.21 in
Visibility 10.0 miles
Clouds Overcast 5500 ft
Dew Point 42 °F
Humidity 40%
Rainfall 0.00 in
Snow Depth Not available.
UV 0 out of 12
Pollen 1.30 out of 12
Air Quality Not available.
Flu Activity Not available.
METAR KANB 230053Z AUTO 08010KT 10SM OVC055 16/04 A3020 RMK AO2 SLP228 T01610044 $

More Conditions Fewer Conditions

10-Day Weather Forecast

Almanac

Astronomy

Nov. 22, 2014 Rise Set
Actual Time
Civil Twilight
Nautical Twilight
Astronomical Twilight
Moon
Length of Visible Light
Length of Day
Tomorrow will be .
, % of the Moon is Illuminated

Today's Extremes

State Highs State Lows

Community

WunderPhotos

Upload Photos

1,772,960 photos uploaded!

WunderBlogs® & News

Nearby

Air Quality

  Air Quality AQ Index Pollutant
Not available.

Snow Depth

Station Depth Elevation

Earthquake Activity

City Distance Mag. Time & Date
Minimum magnitude displayed is 2.5.

Coastal Water Temperatures

Place Temperature

Nearby Weather Stations